sensor_id;sensor_type;location;lat;lon;timestamp;pressure;altitude;pressure_sealevel;temperature;humidity
73941;BME280;62294;48.554;10.202;2023-10-08T00:02:27;96929.44;;;13.19;100.00
73941;BME280;62294;48.554;10.202;2023-10-08T00:04:53;96930.28;;;13.13;100.00
73941;BME280;62294;48.554;10.202;2023-10-08T00:07:24;96931.34;;;13.12;100.00
73941;BME280;62294;48.554;10.202;2023-10-08T00:09:51;96926.19;;;13.10;100.00
73941;BME280;62294;48.554;10.202;2023-10-08T00:12:19;96925.00;;;13.06;100.00
73941;BME280;62294;48.554;10.202;2023-10-08T00:14:47;96927.25;;;13.03;100.00
73941;BME280;62294;48.554;10.202;2023-10-08T00:17:16;96925.41;;;12.97;100.00
73941;BME280;62294;48.554;10.202;2023-10-08T00:19:46;96922.75;;;12.97;100.00
73941;BME280;62294;48.554;10.202;2023-10-08T00:22:19;96928.94;;;12.91;100.00
73941;BME280;62294;48.554;10.202;2023-10-08T00:24:45;96926.06;;;12.92;100.00
73941;BME280;62294;48.554;10.202;2023-10-08T00:27:13;96916.03;;;12.88;100.00
73941;BME280;62294;48.554;10.202;2023-10-08T00:29:44;96911.72;;;12.80;100.00
73941;BME280;62294;48.554;10.202;2023-10-08T00:32:11;96914.00;;;12.83;100.00
73941;BME280;62294;48.554;10.202;2023-10-08T00:34:39;96918.91;;;12.86;100.00
73941;BME280;62294;48.554;10.202;2023-10-08T00:37:12;96909.47;;;12.83;100.00
73941;BME280;62294;48.554;10.202;2023-10-08T00:39:42;96918.13;;;12.79;100.00
73941;BME280;62294;48.554;10.202;2023-10-08T00:42:08;96914.41;;;12.80;100.00
73941;BME280;62294;48.554;10.202;2023-10-08T00:44:36;96903.94;;;12.78;100.00
73941;BME280;62294;48.554;10.202;2023-10-08T00:47:18;96892.69;;;12.76;100.00
73941;BME280;62294;48.554;10.202;2023-10-08T00:49:47;96893.88;;;12.80;100.00
73941;BME280;62294;48.554;10.202;2023-10-08T00:52:29;96883.22;;;12.80;100.00
73941;BME280;62294;48.554;10.202;2023-10-08T00:54:57;96889.97;;;12.83;100.00
73941;BME280;62294;48.554;10.202;2023-10-08T00:57:35;96887.72;;;12.87;100.00
73941;BME280;62294;48.554;10.202;2023-10-08T01:00:06;96885.66;;;12.89;100.00
73941;BME280;62294;48.554;10.202;2023-10-08T01:02:41;96883.56;;;12.97;100.00
73941;BME280;62294;48.554;10.202;2023-10-08T01:05:15;96884.56;;;12.96;100.00
73941;BME280;62294;48.554;10.202;2023-10-08T01:07:45;96888.50;;;12.94;100.00
73941;BME280;62294;48.554;10.202;2023-10-08T01:10:15;96876.41;;;12.91;100.00
73941;BME280;62294;48.554;10.202;2023-10-08T01:12:47;96882.75;;;12.90;100.00
73941;BME280;62294;48.554;10.202;2023-10-08T01:15:22;96884.00;;;12.88;100.00
73941;BME280;62294;48.554;10.202;2023-10-08T01:17:56;96880.50;;;12.87;100.00
73941;BME280;62294;48.554;10.202;2023-10-08T01:20:50;96874.16;;;12.88;100.00
73941;BME280;62294;48.554;10.202;2023-10-08T01:23:19;96872.91;;;12.91;100.00
73941;BME280;62294;48.554;10.202;2023-10-08T01:25:53;96872.69;;;12.92;100.00
73941;BME280;62294;48.554;10.202;2023-10-08T01:28:49;96876.63;;;12.83;100.00
73941;BME280;62294;48.554;10.202;2023-10-08T01:31:16;96881.16;;;12.82;100.00
73941;BME280;62294;48.554;10.202;2023-10-08T01:33:43;96871.72;;;12.87;100.00
73941;BME280;62294;48.554;10.202;2023-10-08T01:36:20;96874.97;;;12.89;100.00
73941;BME280;62294;48.554;10.202;2023-10-08T01:38:48;96874.63;;;12.78;100.00
73941;BME280;62294;48.554;10.202;2023-10-08T01:41:15;96871.34;;;12.76;100.00
73941;BME280;62294;48.554;10.202;2023-10-08T01:43:46;96879.94;;;12.78;100.00
73941;BME280;62294;48.554;10.202;2023-10-08T01:46:12;96881.38;;;12.81;100.00
73941;BME280;62294;48.554;10.202;2023-10-08T01:48:42;96878.94;;;12.79;100.00
73941;BME280;62294;48.554;10.202;2023-10-08T01:51:11;96882.63;;;12.78;100.00
73941;BME280;62294;48.554;10.202;2023-10-08T01:53:38;96872.81;;;12.72;100.00
73941;BME280;62294;48.554;10.202;2023-10-08T01:56:05;96881.25;;;12.63;100.00
73941;BME280;62294;48.554;10.202;2023-10-08T01:58:31;96875.53;;;12.59;100.00
73941;BME280;62294;48.554;10.202;2023-10-08T02:01:00;96875.94;;;12.56;100.00
73941;BME280;62294;48.554;10.202;2023-10-08T02:03:27;96872.69;;;12.54;100.00
73941;BME280;62294;48.554;10.202;2023-10-08T02:05:54;96871.44;;;12.50;100.00
73941;BME280;62294;48.554;10.202;2023-10-08T02:08:25;96867.75;;;12.51;100.00
73941;BME280;62294;48.554;10.202;2023-10-08T02:10:53;96868.78;;;12.50;100.00
73941;BME280;62294;48.554;10.202;2023-10-08T02:13:20;96874.75;;;12.52;100.00
73941;BME280;62294;48.554;10.202;2023-10-08T02:15:49;96870.84;;;12.48;100.00
73941;BME280;62294;48.554;10.202;2023-10-08T02:18:20;96873.50;;;12.48;100.00
73941;BME280;62294;48.554;10.202;2023-10-08T02:20:50;96871.44;;;12.50;100.00
73941;BME280;62294;48.554;10.202;2023-10-08T02:23:17;96866.91;;;12.57;100.00
73941;BME280;62294;48.554;10.202;2023-10-08T02:25:44;96867.72;;;12.58;100.00
73941;BME280;62294;48.554;10.202;2023-10-08T02:28:11;96874.91;;;12.64;100.00
73941;BME280;62294;48.554;10.202;2023-10-08T02:30:42;96874.72;;;12.59;100.00
73941;BME280;62294;48.554;10.202;2023-10-08T02:33:09;96870.19;;;12.59;100.00
73941;BME280;62294;48.554;10.202;2023-10-08T02:35:41;96871.03;;;12.53;100.00
73941;BME280;62294;48.554;10.202;2023-10-08T02:38:11;96870.66;;;12.43;100.00
73941;BME280;62294;48.554;10.202;2023-10-08T02:40:39;96863.28;;;12.45;100.00
73941;BME280;62294;48.554;10.202;2023-10-08T02:43:14;96871.09;;;12.40;100.00
73941;BME280;62294;48.554;10.202;2023-10-08T02:45:42;96868.81;;;12.37;100.00
73941;BME280;62294;48.554;10.202;2023-10-08T02:48:13;96870.50;;;12.32;100.00
73941;BME280;62294;48.554;10.202;2023-10-08T02:50:40;96869.09;;;12.23;100.00
73941;BME280;62294;48.554;10.202;2023-10-08T02:53:08;96867.66;;;12.20;100.00
73941;BME280;62294;48.554;10.202;2023-10-08T02:55:41;96867.06;;;12.18;100.00
73941;BME280;62294;48.554;10.202;2023-10-08T02:58:14;96863.38;;;12.13;100.00
73941;BME280;62294;48.554;10.202;2023-10-08T03:00:42;96866.63;;;12.15;100.00
73941;BME280;62294;48.554;10.202;2023-10-08T03:03:09;96856.81;;;12.15;100.00
73941;BME280;62294;48.554;10.202;2023-10-08T03:05:47;96857.63;;;12.16;100.00
73941;BME280;62294;48.554;10.202;2023-10-08T03:08:15;96856.81;;;12.15;100.00
73941;BME280;62294;48.554;10.202;2023-10-08T03:10:47;96857.63;;;12.16;100.00
73941;BME280;62294;48.554;10.202;2023-10-08T03:13:29;96860.06;;;12.17;100.00
73941;BME280;62294;48.554;10.202;2023-10-08T03:15:55;96863.34;;;12.19;100.00
73941;BME280;62294;48.554;10.202;2023-10-08T03:18:25;96862.75;;;12.17;100.00
73941;BME280;62294;48.554;10.202;2023-10-08T03:20:52;96857.00;;;12.20;100.00
73941;BME280;62294;48.554;10.202;2023-10-08T03:23:19;96864.16;;;12.20;100.00
73941;BME280;62294;48.554;10.202;2023-10-08T03:26:02;96863.94;;;12.21;100.00
73941;BME280;62294;48.554;10.202;2023-10-08T03:28:38;96855.13;;;12.27;100.00
73941;BME280;62294;48.554;10.202;2023-10-08T03:31:08;96853.91;;;12.23;100.00
73941;BME280;62294;48.554;10.202;2023-10-08T03:33:42;96853.06;;;12.29;100.00
73941;BME280;62294;48.554;10.202;2023-10-08T03:36:10;96851.81;;;12.38;100.00
73941;BME280;62294;48.554;10.202;2023-10-08T03:38:48;96858.34;;;12.42;100.00
73941;BME280;62294;48.554;10.202;2023-10-08T03:41:24;96854.69;;;12.43;100.00
73941;BME280;62294;48.554;10.202;2023-10-08T03:43:56;96858.34;;;12.42;100.00
73941;BME280;62294;48.554;10.202;2023-10-08T03:46:33;96858.97;;;12.44;100.00
73941;BME280;62294;48.554;10.202;2023-10-08T03:49:07;96864.72;;;12.48;100.00
73941;BME280;62294;48.554;10.202;2023-10-08T03:51:42;96856.69;;;12.41;100.00
73941;BME280;62294;48.554;10.202;2023-10-08T03:54:08;96861.63;;;12.44;100.00
73941;BME280;62294;48.554;10.202;2023-10-08T03:56:46;96862.84;;;12.48;100.00
73941;BME280;62294;48.554;10.202;2023-10-08T03:59:13;96864.91;;;12.46;100.00
73941;BME280;62294;48.554;10.202;2023-10-08T04:01:44;96868.41;;;12.40;100.00
73941;BME280;62294;48.554;10.202;2023-10-08T04:04:11;96864.94;;;12.40;100.00
73941;BME280;62294;48.554;10.202;2023-10-08T04:06:42;96869.44;;;12.39;100.00
73941;BME280;62294;48.554;10.202;2023-10-08T04:09:16;96871.50;;;12.37;100.00
73941;BME280;62294;48.554;10.202;2023-10-08T04:11:50;96871.91;;;12.41;100.00
73941;BME280;62294;48.554;10.202;2023-10-08T04:14:22;96874.59;;;12.34;100.00
73941;BME280;62294;48.554;10.202;2023-10-08T04:16:49;96881.78;;;12.27;100.00
73941;BME280;62294;48.554;10.202;2023-10-08T04:19:21;96872.75;;;12.28;100.00
73941;BME280;62294;48.554;10.202;2023-10-08T04:21:53;96876.25;;;12.22;100.00
73941;BME280;62294;48.554;10.202;2023-10-08T04:24:25;96870.09;;;12.22;100.00
73941;BME280;62294;48.554;10.202;2023-10-08T04:26:56;96867.06;;;12.18;100.00
73941;BME280;62294;48.554;10.202;2023-10-08T04:29:25;96863.56;;;12.18;100.00
73941;BME280;62294;48.554;10.202;2023-10-08T04:31:52;96868.66;;;12.26;100.00
73941;BME280;62294;48.554;10.202;2023-10-08T04:34:28;96871.56;;;12.18;100.00
73941;BME280;62294;48.554;10.202;2023-10-08T04:36:55;96867.41;;;12.28;100.00
73941;BME280;62294;48.554;10.202;2023-10-08T04:39:27;96864.38;;;12.18;100.00
73941;BME280;62294;48.554;10.202;2023-10-08T04:42:01;96852.75;;;11.99;100.00
73941;BME280;62294;48.554;10.202;2023-10-08T04:44:37;96853.97;;;11.97;100.00
73941;BME280;62294;48.554;10.202;2023-10-08T04:47:07;96841.06;;;11.94;100.00
73941;BME280;62294;48.554;10.202;2023-10-08T04:49:54;96847.84;;;11.90;100.00
73941;BME280;62294;48.554;10.202;2023-10-08T04:52:23;96845.97;;;11.97;100.00
73941;BME280;62294;48.554;10.202;2023-10-08T04:54:51;96853.13;;;12.03;100.00
73941;BME280;62294;48.554;10.202;2023-10-08T04:57:19;96862.53;;;12.12;100.00
73941;BME280;62294;48.554;10.202;2023-10-08T04:59:49;96859.28;;;12.10;100.00
73941;BME280;62294;48.554;10.202;2023-10-08T05:02:17;96862.13;;;12.15;100.00
73941;BME280;62294;48.554;10.202;2023-10-08T05:04:53;96860.06;;;12.17;100.00
73941;BME280;62294;48.554;10.202;2023-10-08T05:07:43;96862.97;;;12.02;100.00
73941;BME280;62294;48.554;10.202;2023-10-08T05:10:15;96848.66;;;11.90;100.00
73941;BME280;62294;48.554;10.202;2023-10-08T05:12:52;96858.88;;;11.93;100.00
73941;BME280;62294;48.554;10.202;2023-10-08T05:15:31;96863.59;;;11.98;100.00
73941;BME280;62294;48.554;10.202;2023-10-08T05:18:08;96862.97;;;11.96;100.00
73941;BME280;62294;48.554;10.202;2023-10-08T05:20:40;96871.19;;;12.01;100.00
73941;BME280;62294;48.554;10.202;2023-10-08T05:23:11;96870.34;;;12.07;100.00
73941;BME280;62294;48.554;10.202;2023-10-08T05:25:52;96878.13;;;12.08;100.00
73941;BME280;62294;48.554;10.202;2023-10-08T05:28:33;96875.22;;;12.23;100.00
73941;BME280;62294;48.554;10.202;2023-10-08T05:31:14;96880.53;;;12.36;100.00
73941;BME280;62294;48.554;10.202;2023-10-08T05:33:44;96880.94;;;12.33;100.00
73941;BME280;62294;48.554;10.202;2023-10-08T05:36:41;96882.97;;;12.38;100.00
73941;BME280;62294;48.554;10.202;2023-10-08T05:39:27;96884.81;;;12.37;100.00
73941;BME280;62294;48.554;10.202;2023-10-08T05:42:07;96894.84;;;12.48;100.00
73941;BME280;62294;48.554;10.202;2023-10-08T05:44:44;96897.28;;;12.56;100.00
73941;BME280;62294;48.554;10.202;2023-10-08T05:47:30;96913.59;;;12.79;100.00
73941;BME280;62294;48.554;10.202;2023-10-08T05:50:00;96911.97;;;12.72;100.00
73941;BME280;62294;48.554;10.202;2023-10-08T05:52:47;96907.41;;;12.28;100.00
73941;BME280;62294;48.554;10.202;2023-10-08T05:55:28;96913.16;;;12.12;100.00
73941;BME280;62294;48.554;10.202;2023-10-08T05:58:03;96912.56;;;12.03;100.00
73941;BME280;62294;48.554;10.202;2023-10-08T06:00:47;96911.13;;;12.07;100.00
73941;BME280;62294;48.554;10.202;2023-10-08T06:03:18;96912.31;;;12.31;100.00
73941;BME280;62294;48.554;10.202;2023-10-08T06:06:08;96903.84;;;12.54;100.00
73941;BME280;62294;48.554;10.202;2023-10-08T06:08:40;96907.72;;;12.58;100.00
73941;BME280;62294;48.554;10.202;2023-10-08T06:11:26;96902.03;;;12.48;100.00
73941;BME280;62294;48.554;10.202;2023-10-08T06:14:11;96907.16;;;12.49;100.00
73941;BME280;62294;48.554;10.202;2023-10-08T06:16:44;96912.88;;;12.59;100.00
73941;BME280;62294;48.554;10.202;2023-10-08T06:19:11;96909.28;;;12.78;100.00
73941;BME280;62294;48.554;10.202;2023-10-08T06:21:40;96917.63;;;12.95;100.00
73941;BME280;62294;48.554;10.202;2023-10-08T06:24:08;96918.47;;;12.96;100.00
73941;BME280;62294;48.554;10.202;2023-10-08T06:26:37;96920.53;;;12.94;100.00
73941;BME280;62294;48.554;10.202;2023-10-08T06:29:10;96920.38;;;12.82;100.00
73941;BME280;62294;48.554;10.202;2023-10-08T06:31:45;96928.69;;;12.99;100.00
73941;BME280;62294;48.554;10.202;2023-10-08T06:34:18;96926.25;;;12.97;100.00
73941;BME280;62294;48.554;10.202;2023-10-08T06:36:48;96914.66;;;12.72;100.00
73941;BME280;62294;48.554;10.202;2023-10-08T06:39:26;96918.63;;;12.56;100.00
73941;BME280;62294;48.554;10.202;2023-10-08T06:42:00;96912.88;;;12.53;100.00
73941;BME280;62294;48.554;10.202;2023-10-08T06:44:27;96923.06;;;12.69;100.00
73941;BME280;62294;48.554;10.202;2023-10-08T06:46:54;96915.22;;;12.80;100.00
73941;BME280;62294;48.554;10.202;2023-10-08T06:49:22;96917.59;;;13.02;100.00
73941;BME280;62294;48.554;10.202;2023-10-08T06:51:51;96924.63;;;12.90;100.00
73941;BME280;62294;48.554;10.202;2023-10-08T06:54:18;96921.31;;;12.94;100.00
73941;BME280;62294;48.554;10.202;2023-10-08T06:56:45;96927.72;;;12.93;100.00
73941;BME280;62294;48.554;10.202;2023-10-08T06:59:18;96920.72;;;12.92;100.00
73941;BME280;62294;48.554;10.202;2023-10-08T07:01:49;96929.78;;;12.84;100.00
73941;BME280;62294;48.554;10.202;2023-10-08T07:04:18;96915.78;;;12.96;100.00
73941;BME280;62294;48.554;10.202;2023-10-08T07:06:46;96919.91;;;12.92;100.00
73941;BME280;62294;48.554;10.202;2023-10-08T07:09:13;96920.34;;;12.89;100.00
73941;BME280;62294;48.554;10.202;2023-10-08T07:11:52;96922.81;;;12.83;100.00
73941;BME280;62294;48.554;10.202;2023-10-08T07:14:23;96919.47;;;12.95;100.00
73941;BME280;62294;48.554;10.202;2023-10-08T07:16:58;96917.84;;;12.94;100.00
73941;BME280;62294;48.554;10.202;2023-10-08T07:19:28;96926.03;;;12.99;100.00
73941;BME280;62294;48.554;10.202;2023-10-08T07:22:08;96920.88;;;13.10;100.00
73941;BME280;62294;48.554;10.202;2023-10-08T07:24:45;96935.63;;;13.13;100.00
73941;BME280;62294;48.554;10.202;2023-10-08T07:27:12;96929.47;;;13.12;100.00
73941;BME280;62294;48.554;10.202;2023-10-08T07:29:40;96928.69;;;13.12;100.00
73941;BME280;62294;48.554;10.202;2023-10-08T07:32:06;96924.97;;;13.13;100.00
73941;BME280;62294;48.554;10.202;2023-10-08T07:34:39;96930.25;;;13.19;100.00
73941;BME280;62294;48.554;10.202;2023-10-08T07:37:05;96930.66;;;13.23;100.00
73941;BME280;62294;48.554;10.202;2023-10-08T07:39:32;96934.28;;;13.35;100.00
73941;BME280;62294;48.554;10.202;2023-10-08T07:42:05;96935.50;;;13.39;100.00
73941;BME280;62294;48.554;10.202;2023-10-08T07:44:32;96927.63;;;13.44;100.00
73941;BME280;62294;48.554;10.202;2023-10-08T07:47:02;96936.66;;;13.49;100.00
73941;BME280;62294;48.554;10.202;2023-10-08T07:49:37;96932.09;;;13.57;100.00
73941;BME280;62294;48.554;10.202;2023-10-08T07:52:04;96935.72;;;13.69;100.00
73941;BME280;62294;48.554;10.202;2023-10-08T07:54:32;96928.84;;;13.79;100.00
73941;BME280;62294;48.554;10.202;2023-10-08T07:57:02;96926.28;;;13.91;100.00
73941;BME280;62294;48.554;10.202;2023-10-08T07:59:36;96929.19;;;13.89;100.00
73941;BME280;62294;48.554;10.202;2023-10-08T08:02:09;96933.41;;;13.97;100.00
73941;BME280;62294;48.554;10.202;2023-10-08T08:04:40;96937.25;;;14.07;100.00
73941;BME280;62294;48.554;10.202;2023-10-08T08:07:07;96932.44;;;14.16;100.00
73941;BME280;62294;48.554;10.202;2023-10-08T08:09:34;96938.16;;;14.19;100.00
73941;BME280;62294;48.554;10.202;2023-10-08T08:12:05;96940.75;;;14.33;100.00
73941;BME280;62294;48.554;10.202;2023-10-08T08:14:38;96946.84;;;14.40;100.00
73941;BME280;62294;48.554;10.202;2023-10-08T08:17:08;96938.16;;;14.19;100.00
73941;BME280;62294;48.554;10.202;2023-10-08T08:19:42;96943.13;;;14.41;100.00
73941;BME280;62294;48.554;10.202;2023-10-08T08:22:10;96944.59;;;14.37;100.00
73941;BME280;62294;48.554;10.202;2023-10-08T08:24:49;96937.03;;;14.52;100.00
73941;BME280;62294;48.554;10.202;2023-10-08T08:27:23;96939.44;;;14.60;100.00
73941;BME280;62294;48.554;10.202;2023-10-08T08:30:00;96943.59;;;14.74;100.00
73941;BME280;62294;48.554;10.202;2023-10-08T08:32:42;96931.25;;;14.73;100.00
73941;BME280;62294;48.554;10.202;2023-10-08T08:35:11;96933.03;;;14.79;100.00
73941;BME280;62294;48.554;10.202;2023-10-08T08:37:38;96939.28;;;14.91;100.00
73941;BME280;62294;48.554;10.202;2023-10-08T08:40:06;96937.59;;;15.08;100.00
73941;BME280;62294;48.554;10.202;2023-10-08T08:42:49;96944.91;;;15.19;100.00
73941;BME280;62294;48.554;10.202;2023-10-08T08:45:19;96945.88;;;15.07;100.00
73941;BME280;62294;48.554;10.202;2023-10-08T08:47:47;96938.53;;;15.32;100.00
73941;BME280;62294;48.554;10.202;2023-10-08T08:50:14;96936.56;;;15.57;100.00
73941;BME280;62294;48.554;10.202;2023-10-08T08:52:41;96955.34;;;15.69;100.00
73941;BME280;62294;48.554;10.202;2023-10-08T08:55:08;96959.47;;;15.83;100.00
73941;BME280;62294;48.554;10.202;2023-10-08T08:57:46;96967.88;;;15.56;100.00
73941;BME280;62294;48.554;10.202;2023-10-08T09:00:15;96961.00;;;15.90;100.00
73941;BME280;62294;48.554;10.202;2023-10-08T09:02:47;96954.69;;;16.61;100.00
73941;BME280;62294;48.554;10.202;2023-10-08T09:05:16;96966.88;;;16.91;100.00
73941;BME280;62294;48.554;10.202;2023-10-08T09:08:01;96977.69;;;17.48;100.00
73941;BME280;62294;48.554;10.202;2023-10-08T09:10:32;96989.59;;;18.25;100.00
73941;BME280;62294;48.554;10.202;2023-10-08T09:13:05;97002.78;;;17.93;100.00
73941;BME280;62294;48.554;10.202;2023-10-08T09:15:32;96996.03;;;18.24;100.00
73941;BME280;62294;48.554;10.202;2023-10-08T09:17:58;97001.00;;;18.15;100.00
73941;BME280;62294;48.554;10.202;2023-10-08T09:20:29;97007.25;;;18.49;100.00
73941;BME280;62294;48.554;10.202;2023-10-08T09:23:11;97009.50;;;18.40;100.00
73941;BME280;62294;48.554;10.202;2023-10-08T09:25:40;96999.94;;;19.21;100.00
73941;BME280;62294;48.554;10.202;2023-10-08T09:28:07;96999.28;;;18.92;100.00
73941;BME280;62294;48.554;10.202;2023-10-08T09:30:35;97001.84;;;19.64;100.00
73941;BME280;62294;48.554;10.202;2023-10-08T09:33:05;97004.72;;;19.57;100.00
73941;BME280;62294;48.554;10.202;2023-10-08T09:35:33;97006.13;;;19.87;100.00
73941;BME280;62294;48.554;10.202;2023-10-08T09:38:03;97004.31;;;19.27;100.00
73941;BME280;62294;48.554;10.202;2023-10-08T09:40:30;97003.78;;;19.47;100.00
73941;BME280;62294;48.554;10.202;2023-10-08T09:42:59;96990.91;;;19.10;100.00
73941;BME280;62294;48.554;10.202;2023-10-08T09:45:25;96998.66;;;19.45;100.00
73941;BME280;62294;48.554;10.202;2023-10-08T09:47:55;97006.25;;;19.48;100.00
73941;BME280;62294;48.554;10.202;2023-10-08T09:50:31;97005.28;;;19.59;100.00
73941;BME280;62294;48.554;10.202;2023-10-08T09:53:18;97004.00;;;20.47;100.00
73941;BME280;62294;48.554;10.202;2023-10-08T09:55:55;97002.63;;;20.76;100.00
73941;BME280;62294;48.554;10.202;2023-10-08T09:58:23;97000.69;;;21.13;100.00
73941;BME280;62294;48.554;10.202;2023-10-08T10:00:52;96999.56;;;20.68;100.00
73941;BME280;62294;48.554;10.202;2023-10-08T10:03:21;97008.84;;;21.24;100.00
73941;BME280;62294;48.554;10.202;2023-10-08T10:05:49;97003.84;;;20.64;100.00
73941;BME280;62294;48.554;10.202;2023-10-08T10:08:21;97005.16;;;20.24;100.00
73941;BME280;62294;48.554;10.202;2023-10-08T10:10:58;96997.94;;;20.67;100.00
73941;BME280;62294;48.554;10.202;2023-10-08T10:13:34;97003.25;;;20.57;100.00
73941;BME280;62294;48.554;10.202;2023-10-08T10:16:00;96996.38;;;20.39;100.00
73941;BME280;62294;48.554;10.202;2023-10-08T10:18:28;96997.25;;;20.18;100.00
73941;BME280;62294;48.554;10.202;2023-10-08T10:23:40;96994.16;;;20.63;100.00
73941;BME280;62294;48.554;10.202;2023-10-08T10:26:34;96998.91;;;20.87;100.00
73941;BME280;62294;48.554;10.202;2023-10-08T10:31:34;97009.88;;;21.17;100.00
73941;BME280;62294;48.554;10.202;2023-10-08T10:34:06;97012.91;;;21.21;100.00
73941;BME280;62294;48.554;10.202;2023-10-08T10:36:35;97017.06;;;21.02;100.00
73941;BME280;62294;48.554;10.202;2023-10-08T10:39:02;97010.66;;;21.08;100.00
73941;BME280;62294;48.554;10.202;2023-10-08T10:41:45;97019.34;;;21.10;100.00
73941;BME280;62294;48.554;10.202;2023-10-08T10:44:12;97035.75;;;21.03;100.00
73941;BME280;62294;48.554;10.202;2023-10-08T10:46:44;97025.59;;;21.20;100.00
73941;BME280;62294;48.554;10.202;2023-10-08T10:49:20;97022.50;;;21.49;100.00
73941;BME280;62294;48.554;10.202;2023-10-08T10:51:58;97022.69;;;22.04;100.00
73941;BME280;62294;48.554;10.202;2023-10-08T10:54:25;97021.56;;;21.85;100.00
73941;BME280;62294;48.554;10.202;2023-10-08T10:56:52;97018.63;;;21.97;100.00
73941;BME280;62294;48.554;10.202;2023-10-08T10:59:32;97026.19;;;21.28;100.00
73941;BME280;62294;48.554;10.202;2023-10-08T11:02:09;97030.09;;;20.68;100.00
73941;BME280;62294;48.554;10.202;2023-10-08T11:04:48;97021.72;;;20.70;100.00
73941;BME280;62294;48.554;10.202;2023-10-08T11:07:18;97035.75;;;21.03;100.00
73941;BME280;62294;48.554;10.202;2023-10-08T11:09:49;97019.50;;;21.45;100.00
73941;BME280;62294;48.554;10.202;2023-10-08T11:12:19;97029.09;;;20.79;100.00
73941;BME280;62294;48.554;10.202;2023-10-08T11:14:49;97031.06;;;21.31;100.00
73941;BME280;62294;48.554;10.202;2023-10-08T11:17:23;97014.75;;;21.15;100.00
73941;BME280;62294;48.554;10.202;2023-10-08T11:19:51;97016.88;;;20.35;100.00
73941;BME280;62294;48.554;10.202;2023-10-08T11:22:18;97018.22;;;20.69;100.00
73941;BME280;62294;48.554;10.202;2023-10-08T11:24:46;97011.13;;;20.63;100.00
73941;BME280;62294;48.554;10.202;2023-10-08T11:27:20;97014.38;;;20.60;100.00
73941;BME280;62294;48.554;10.202;2023-10-08T11:29:56;96998.25;;;20.75;100.00
73941;BME280;62294;48.554;10.202;2023-10-08T11:32:25;96994.13;;;20.26;100.00
73941;BME280;62294;48.554;10.202;2023-10-08T11:34:56;96997.41;;;20.70;100.00
73941;BME280;62294;48.554;10.202;2023-10-08T11:37:31;96994.66;;;21.01;100.00
73941;BME280;62294;48.554;10.202;2023-10-08T11:40:00;96994.00;;;20.84;100.00
73941;BME280;62294;48.554;10.202;2023-10-08T11:42:44;96991.63;;;20.93;100.00
73941;BME280;62294;48.554;10.202;2023-10-08T11:45:11;96983.88;;;21.06;100.00
73941;BME280;62294;48.554;10.202;2023-10-08T11:48:06;96994.25;;;21.25;100.00
73941;BME280;62294;48.554;10.202;2023-10-08T11:50:39;96989.56;;;21.77;100.00
73941;BME280;62294;48.554;10.202;2023-10-08T11:53:07;96991.31;;;22.28;100.00
73941;BME280;62294;48.554;10.202;2023-10-08T11:55:35;96994.00;;;22.38;100.00
73941;BME280;62294;48.554;10.202;2023-10-08T11:58:06;96997.53;;;22.24;100.00
73941;BME280;62294;48.554;10.202;2023-10-08T12:00:44;96989.41;;;22.84;100.00
73941;BME280;62294;48.554;10.202;2023-10-08T12:03:13;96988.63;;;22.69;100.00
73941;BME280;62294;48.554;10.202;2023-10-08T12:05:48;96995.91;;;22.23;100.00
73941;BME280;62294;48.554;10.202;2023-10-08T12:08:17;96985.38;;;22.67;100.00
73941;BME280;62294;48.554;10.202;2023-10-08T12:10:44;96990.63;;;21.66;100.00
73941;BME280;62294;48.554;10.202;2023-10-08T12:13:13;96975.91;;;21.37;100.00
73941;BME280;62294;48.554;10.202;2023-10-08T12:15:40;96985.97;;;20.94;100.00
73941;BME280;62294;48.554;10.202;2023-10-08T12:18:10;96975.63;;;20.86;100.00
73941;BME280;62294;48.554;10.202;2023-10-08T12:20:56;96973.75;;;21.29;100.00
73941;BME280;62294;48.554;10.202;2023-10-08T12:23:22;96973.81;;;21.59;100.00
73941;BME280;62294;48.554;10.202;2023-10-08T12:25:53;96970.00;;;21.45;100.00
73941;BME280;62294;48.554;10.202;2023-10-08T12:28:23;96971.00;;;21.24;100.00
73941;BME280;62294;48.554;10.202;2023-10-08T12:30:51;96964.53;;;21.30;100.00
73941;BME280;62294;48.554;10.202;2023-10-08T12:33:20;96961.34;;;21.38;100.00
73941;BME280;62294;48.554;10.202;2023-10-08T12:35:48;96961.34;;;21.48;100.00
73941;BME280;62294;48.554;10.202;2023-10-08T12:38:15;96954.66;;;21.70;100.00
73941;BME280;62294;48.554;10.202;2023-10-08T12:40:41;96966.09;;;21.87;100.00
73941;BME280;62294;48.554;10.202;2023-10-08T12:43:14;96960.41;;;22.04;100.00
73941;BME280;62294;48.554;10.202;2023-10-08T12:45:49;96957.97;;;21.87;100.00
73941;BME280;62294;48.554;10.202;2023-10-08T12:48:23;96944.16;;;22.04;100.00
73941;BME280;62294;48.554;10.202;2023-10-08T12:50:54;96937.13;;;21.93;100.00
73941;BME280;62294;48.554;10.202;2023-10-08T12:53:28;96930.63;;;22.29;100.00
73941;BME280;62294;48.554;10.202;2023-10-08T12:56:06;96929.00;;;22.38;100.00
73941;BME280;62294;48.554;10.202;2023-10-08T12:58:34;96929.47;;;21.60;100.00
73941;BME280;62294;48.554;10.202;2023-10-08T13:01:08;96919.16;;;21.52;100.00
73941;BME280;62294;48.554;10.202;2023-10-08T13:03:37;96927.13;;;21.83;100.00
73941;BME280;62294;48.554;10.202;2023-10-08T13:06:15;96918.97;;;22.79;100.00
73941;BME280;62294;48.554;10.202;2023-10-08T13:08:49;96927.13;;;22.54;100.00
73941;BME280;62294;48.554;10.202;2023-10-08T13:11:19;96924.66;;;22.73;100.00